createdAt,value
2019-02-06T00:00:02.083Z,38.30
2019-02-06T00:02:32.007Z,31.15
2019-02-06T00:05:00.824Z,32.13
2019-02-06T00:07:30.480Z,34.83
2019-02-06T00:10:00.887Z,45.65
2019-02-06T00:12:32.369Z,32.08
2019-02-06T00:15:01.075Z,31.77
2019-02-06T00:17:30.910Z,26.75
2019-02-06T00:20:01.488Z,25.65
2019-02-06T00:22:30.920Z,25.40
2019-02-06T00:25:01.179Z,27.95
2019-02-06T00:27:31.188Z,33.95
2019-02-06T00:30:00.097Z,28.95
2019-02-06T00:32:28.933Z,26.37
2019-02-06T00:35:00.095Z,29.77
2019-02-06T00:37:31.288Z,35.23
2019-02-06T00:40:01.306Z,35.03
2019-02-06T00:42:33.159Z,25.80
2019-02-06T00:45:04.775Z,30.02
2019-02-06T00:47:36.810Z,28.12
2019-02-06T00:50:15.978Z,32.42
2019-02-06T00:52:45.817Z,40.63
2019-02-06T00:55:15.434Z,33.20
2019-02-06T00:57:45.918Z,33.13
2019-02-06T01:00:23.977Z,35.50
2019-02-06T01:02:54.137Z,34.98
2019-02-06T01:05:23.790Z,28.98
2019-02-06T01:07:53.975Z,31.20
2019-02-06T01:10:23.251Z,28.75
2019-02-06T01:12:51.845Z,22.48
2019-02-06T01:15:23.385Z,26.70
2019-02-06T01:17:53.381Z,30.88
2019-02-06T01:20:22.111Z,26.20
2019-02-06T01:22:51.910Z,22.05
2019-02-06T01:25:21.789Z,25.88
2019-02-06T01:27:50.580Z,25.57
2019-02-06T01:30:22.825Z,19.10
2019-02-06T01:32:54.103Z,18.50
2019-02-06T01:35:27.019Z,31.23
2019-02-06T01:37:55.788Z,20.55
2019-02-06T01:40:24.375Z,24.77
2019-02-06T01:42:53.046Z,27.02
2019-02-06T01:45:27.250Z,23.45
2019-02-06T01:47:56.327Z,25.35
2019-02-06T01:50:24.941Z,28.17
2019-02-06T01:52:53.558Z,40.80
2019-02-06T01:55:26.828Z,20.12
2019-02-06T01:57:56.274Z,21.65
2019-02-06T02:00:26.520Z,19.62
2019-02-06T02:02:55.472Z,23.05
2019-02-06T02:05:24.228Z,19.87
2019-02-06T02:07:54.555Z,19.27
2019-02-06T02:10:23.706Z,20.20
2019-02-06T02:12:52.460Z,20.20
2019-02-06T02:15:21.277Z,28.50
2019-02-06T02:17:50.649Z,17.12
2019-02-06T02:20:24.963Z,17.12
2019-02-06T02:22:56.125Z,16.35
2019-02-06T02:25:26.163Z,26.15
2019-02-06T02:27:57.994Z,23.35
2019-02-06T02:30:34.583Z,22.48
2019-02-06T02:33:04.933Z,18.75
2019-02-06T02:35:33.586Z,18.23
2019-02-06T02:38:04.417Z,20.50
2019-02-06T02:40:33.900Z,16.50
2019-02-06T02:43:03.635Z,15.32
2019-02-06T02:45:32.643Z,21.57
2019-02-06T02:48:02.954Z,23.32
2019-02-06T02:50:32.799Z,15.95
2019-02-06T02:53:02.577Z,19.02
2019-02-06T02:55:31.255Z,20.80
2019-02-06T02:57:59.850Z,20.70
2019-02-06T03:00:46.483Z,28.02
2019-02-06T03:03:16.678Z,19.20
2019-02-06T03:05:45.325Z,15.70
2019-02-06T03:08:14.003Z,20.57
2019-02-06T03:10:46.227Z,23.42
2019-02-06T03:13:15.677Z,29.45
2019-02-06T03:15:46.538Z,28.73
2019-02-06T03:18:15.330Z,16.73
2019-02-06T03:20:43.925Z,19.30
2019-02-06T03:23:13.549Z,16.75
2019-02-06T03:25:42.665Z,21.70
2019-02-06T03:28:11.312Z,17.25
2019-02-06T03:30:41.029Z,17.90
2019-02-06T03:33:09.684Z,14.60
2019-02-06T03:35:40.671Z,22.62
2019-02-06T03:38:11.050Z,17.48
2019-02-06T03:40:42.249Z,20.27
2019-02-06T03:43:10.916Z,19.50
2019-02-06T03:45:40.897Z,16.87
2019-02-06T03:48:09.544Z,22.25
2019-02-06T03:50:40.309Z,16.50
2019-02-06T03:53:10.263Z,19.55
2019-02-06T03:55:43.182Z,19.20
2019-02-06T03:58:14.799Z,12.68
2019-02-06T04:00:46.168Z,11.75
2019-02-06T04:03:16.304Z,15.83
2019-02-06T04:05:44.946Z,17.82
2019-02-06T04:08:14.947Z,16.12
2019-02-06T04:10:53.968Z,22.65
2019-02-06T04:13:23.267Z,21.50
2019-02-06T04:15:53.550Z,20.92
2019-02-06T04:18:22.403Z,23.57
2019-02-06T04:20:52.699Z,17.20
2019-02-06T04:23:22.502Z,18.10
2019-02-06T04:25:52.162Z,15.60
2019-02-06T04:28:22.282Z,13.50
2019-02-06T04:30:51.976Z,16.70
2019-02-06T04:33:22.104Z,19.92
2019-02-06T04:35:51.831Z,16.23
2019-02-06T04:38:21.932Z,14.25
2019-02-06T04:40:50.900Z,16.25
2019-02-06T04:43:22.393Z,15.10
2019-02-06T04:45:52.498Z,15.38
2019-02-06T04:48:22.224Z,15.45
2019-02-06T04:50:51.355Z,21.23
2019-02-06T04:53:21.503Z,16.07
2019-02-06T04:55:53.601Z,20.43
2019-02-06T04:58:24.532Z,9.28
2019-02-06T05:00:53.175Z,13.03
2019-02-06T05:03:27.862Z,16.10
2019-02-06T05:05:56.513Z,18.73
2019-02-06T05:08:27.157Z,19.30
2019-02-06T05:10:55.722Z,12.50
2019-02-06T05:13:25.915Z,12.93
2019-02-06T05:16:08.101Z,16.70
2019-02-06T05:18:36.787Z,15.75
2019-02-06T05:21:05.768Z,11.55
2019-02-06T05:23:34.306Z,13.93
2019-02-06T05:26:04.937Z,18.12
2019-02-06T05:28:36.336Z,20.75
2019-02-06T05:31:28.677Z,13.95
2019-02-06T05:34:11.383Z,17.25
2019-02-06T05:36:41.658Z,13.13
2019-02-06T05:39:09.980Z,20.25
2019-02-06T05:41:38.771Z,16.17
2019-02-06T05:44:07.387Z,15.85
2019-02-06T05:46:36.857Z,16.17
2019-02-06T05:49:15.845Z,12.37
2019-02-06T05:51:49.841Z,12.37
2019-02-06T05:54:18.845Z,11.05
2019-02-06T05:56:54.482Z,15.38
2019-02-06T05:59:23.384Z,17.15
2019-02-06T06:01:51.990Z,16.73
2019-02-06T06:04:24.435Z,10.25
2019-02-06T06:06:53.275Z,11.12
2019-02-06T06:09:22.133Z,12.58
2019-02-06T06:11:52.313Z,9.83
2019-02-06T06:14:20.843Z,18.20
2019-02-06T06:16:49.398Z,17.30
2019-02-06T06:21:00.212Z,13.78
2019-02-06T06:21:57.304Z,12.63
2019-02-06T06:24:35.440Z,11.57
2019-02-06T06:27:07.745Z,18.10
2019-02-06T06:29:39.636Z,15.00
2019-02-06T06:32:11.361Z,17.95
2019-02-06T06:34:40.645Z,22.27
2019-02-06T06:37:11.191Z,16.10
2019-02-06T06:39:42.043Z,11.28
2019-02-06T06:42:13.449Z,12.00
2019-02-06T06:44:46.298Z,15.35
2019-02-06T06:47:16.724Z,10.95
2019-02-06T06:49:46.472Z,12.63
2019-02-06T06:52:18.599Z,13.43
2019-02-06T06:54:47.406Z,13.58
2019-02-06T06:57:16.097Z,15.53
2019-02-06T06:59:44.856Z,14.85
2019-02-06T07:02:13.547Z,11.20
2019-02-06T07:04:42.330Z,15.85
2019-02-06T07:07:11.017Z,11.57
2019-02-06T07:09:41.406Z,16.45
2019-02-06T07:12:11.870Z,10.23
2019-02-06T07:14:42.475Z,13.15
2019-02-06T07:17:11.160Z,13.18
2019-02-06T07:19:39.844Z,16.30
2019-02-06T07:22:08.547Z,14.70
2019-02-06T07:24:38.748Z,17.02
2019-02-06T07:27:07.515Z,16.12
2019-02-06T07:29:37.788Z,17.62
2019-02-06T07:32:09.750Z,19.27
2019-02-06T07:34:40.310Z,39.18
2019-02-06T07:37:11.016Z,44.50
2019-02-06T07:39:40.210Z,33.18
2019-02-06T07:42:08.927Z,17.73
2019-02-06T07:44:38.842Z,19.70
2019-02-06T07:47:10.401Z,25.48
2019-02-06T07:49:42.067Z,14.45
2019-02-06T07:52:11.028Z,19.90
2019-02-06T07:54:40.567Z,16.57
2019-02-06T07:57:09.308Z,21.80
2019-02-06T07:59:38.045Z,26.73
2019-02-06T08:02:08.599Z,22.10
2019-02-06T08:04:37.403Z,15.43
2019-02-06T08:07:06.442Z,20.90
2019-02-06T08:09:37.784Z,24.05
2019-02-06T08:12:07.758Z,21.48
2019-02-06T08:14:36.404Z,27.52
2019-02-06T08:17:05.367Z,20.92
2019-02-06T08:19:33.960Z,21.33
2019-02-06T08:22:02.466Z,16.20
2019-02-06T08:24:31.031Z,15.15
2019-02-06T08:26:59.699Z,14.33
2019-02-06T08:29:28.302Z,13.58
2019-02-06T08:31:56.845Z,16.15
2019-02-06T08:34:25.632Z,15.20
2019-02-06T08:36:54.280Z,11.80
2019-02-06T08:39:22.876Z,16.35
2019-02-06T08:41:51.399Z,13.30
2019-02-06T08:44:19.939Z,14.55
2019-02-06T08:46:48.547Z,10.03
2019-02-06T08:49:17.353Z,13.15
2019-02-06T08:51:45.994Z,12.53
2019-02-06T08:54:15.090Z,11.73
2019-02-06T08:56:43.776Z,13.35
2019-02-06T08:59:12.454Z,14.30
2019-02-06T09:01:40.994Z,13.43
2019-02-06T09:04:09.745Z,15.25
2019-02-06T09:06:38.557Z,17.05
2019-02-06T09:09:09.501Z,14.83
2019-02-06T09:11:38.178Z,13.90
2019-02-06T09:14:06.898Z,14.85
2019-02-06T09:16:35.562Z,12.53
2019-02-06T09:19:04.276Z,17.25
2019-02-06T09:21:33.101Z,17.27
2019-02-06T09:24:01.704Z,17.15
2019-02-06T09:26:33.068Z,14.68
2019-02-06T09:29:00.462Z,20.70
2019-02-06T09:31:29.095Z,21.00
2019-02-06T09:33:57.862Z,22.13
2019-02-06T09:36:26.409Z,25.65
2019-02-06T09:38:54.925Z,29.05
2019-02-06T09:41:23.405Z,31.68
2019-02-06T09:43:51.993Z,22.77
2019-02-06T09:46:20.478Z,24.55
2019-02-06T09:48:50.177Z,20.88
2019-02-06T09:51:19.548Z,28.45
2019-02-06T09:53:48.537Z,28.42
2019-02-06T09:56:19.644Z,25.68
2019-02-06T09:58:48.294Z,25.48
2019-02-06T10:01:16.845Z,30.35
2019-02-06T10:03:47.022Z,27.93
2019-02-06T10:06:15.664Z,29.95
2019-02-06T10:08:44.263Z,28.47
2019-02-06T10:11:12.863Z,26.33
2019-02-06T10:13:41.419Z,28.80
2019-02-06T10:16:10.217Z,39.98
2019-02-06T10:18:40.491Z,26.80
2019-02-06T10:21:09.193Z,32.08
2019-02-06T10:23:37.913Z,30.00
2019-02-06T10:26:06.788Z,40.60
2019-02-06T10:28:35.516Z,28.20
2019-02-06T10:31:04.224Z,39.35
2019-02-06T10:33:33.483Z,38.73
2019-02-06T10:36:02.189Z,30.97
2019-02-06T10:38:30.746Z,29.90
2019-02-06T10:40:59.755Z,32.48
2019-02-06T10:43:32.185Z,29.57
2019-02-06T10:45:58.549Z,33.98
2019-02-06T10:48:27.166Z,42.00
2019-02-06T10:50:58.315Z,25.97
2019-02-06T10:53:26.237Z,31.30
2019-02-06T10:55:54.819Z,31.37
2019-02-06T10:58:23.494Z,31.00
2019-02-06T11:00:56.190Z,29.15
2019-02-06T11:03:24.905Z,32.55
2019-02-06T11:05:53.594Z,35.43
2019-02-06T11:08:23.004Z,23.75
2019-02-06T11:10:51.544Z,27.73
2019-02-06T11:13:20.259Z,26.27
2019-02-06T11:15:48.946Z,24.80
2019-02-06T11:18:17.538Z,25.35
2019-02-06T11:20:46.841Z,24.23
2019-02-06T11:23:15.456Z,23.77
2019-02-06T11:25:44.155Z,22.90
2019-02-06T11:28:13.148Z,22.90
2019-02-06T11:30:41.898Z,20.25
2019-02-06T11:33:10.503Z,19.67
2019-02-06T11:35:39.145Z,22.93
2019-02-06T11:38:08.108Z,22.40
2019-02-06T11:40:36.798Z,21.25
2019-02-06T11:43:06.585Z,20.55
2019-02-06T11:45:36.369Z,18.55
2019-02-06T11:48:05.585Z,14.43
2019-02-06T11:50:36.302Z,13.38
2019-02-06T11:53:06.266Z,11.88
2019-02-06T11:55:35.154Z,16.42
2019-02-06T11:58:03.734Z,14.95
2019-02-06T12:00:49.067Z,20.05
2019-02-06T12:03:17.871Z,22.10
2019-02-06T12:05:46.546Z,16.87
2019-02-06T12:08:15.233Z,21.42
2019-02-06T12:10:44.749Z,19.62
2019-02-06T12:13:13.456Z,16.53
2019-02-06T12:15:41.999Z,25.23
2019-02-06T12:18:10.772Z,16.73
2019-02-06T12:20:39.472Z,20.53
2019-02-06T12:23:08.228Z,21.20
2019-02-06T12:25:36.796Z,15.93
2019-02-06T12:28:06.171Z,21.90
2019-02-06T12:30:39.706Z,23.00
2019-02-06T12:33:08.384Z,21.87
2019-02-06T12:35:37.043Z,21.13
2019-02-06T12:38:06.260Z,22.53
2019-02-06T12:40:35.063Z,23.20
2019-02-06T12:43:05.022Z,18.20
2019-02-06T12:45:34.022Z,18.27
2019-02-06T12:48:02.557Z,15.60
2019-02-06T12:50:31.216Z,16.20
2019-02-06T12:53:00.070Z,18.00
2019-02-06T12:55:37.237Z,18.00
2019-02-06T12:58:06.989Z,17.87
2019-02-06T13:00:38.811Z,16.10
2019-02-06T13:03:07.679Z,16.50
2019-02-06T13:05:36.279Z,18.40
2019-02-06T13:08:05.770Z,15.63
2019-02-06T13:10:34.656Z,15.57
2019-02-06T13:13:03.231Z,17.20
2019-02-06T13:15:32.148Z,20.10
2019-02-06T13:18:00.733Z,19.73
2019-02-06T13:20:34.282Z,16.83
2019-02-06T13:23:02.889Z,16.70
2019-02-06T13:25:31.640Z,15.80
2019-02-06T13:28:00.339Z,16.60
2019-02-06T13:30:35.572Z,16.50
2019-02-06T13:33:05.526Z,16.63
2019-02-06T13:35:34.289Z,16.13
2019-02-06T13:38:02.920Z,16.23
2019-02-06T13:40:31.613Z,14.43
2019-02-06T13:43:00.377Z,16.20
2019-02-06T13:45:43.995Z,16.97
2019-02-06T13:48:12.672Z,18.50
2019-02-06T13:50:41.496Z,16.40
2019-02-06T13:53:10.176Z,18.50
2019-02-06T13:55:38.879Z,20.17
2019-02-06T13:58:19.208Z,21.30
2019-02-06T14:00:41.912Z,22.27
2019-02-06T14:03:10.740Z,18.10
2019-02-06T14:05:39.765Z,21.50
2019-02-06T14:08:10.984Z,21.77
2019-02-06T14:10:39.714Z,21.67
2019-02-06T14:13:08.331Z,21.97
2019-02-06T14:15:45.911Z,21.70
2019-02-06T14:18:14.713Z,23.77
2019-02-06T14:20:44.132Z,19.40
2019-02-06T14:23:25.029Z,23.40
2019-02-06T14:26:05.401Z,21.60
2019-02-06T14:28:44.747Z,22.73
2019-02-06T14:31:29.477Z,26.80
2019-02-06T14:34:09.857Z,23.00
2019-02-06T14:37:00.640Z,19.13
2019-02-06T14:39:44.644Z,25.80
2019-02-06T14:42:27.985Z,23.63
2019-02-06T14:45:02.342Z,23.87
2019-02-06T14:47:54.726Z,23.80
2019-02-06T14:50:35.042Z,30.63
2019-02-06T14:53:18.240Z,32.87
2019-02-06T14:56:06.202Z,23.87
2019-02-06T14:58:57.129Z,21.30
2019-02-06T15:01:45.018Z,25.73
2019-02-06T15:04:37.310Z,29.67
2019-02-06T15:07:26.455Z,34.75
2019-02-06T15:10:18.722Z,34.75
2019-02-06T15:13:05.492Z,38.17
2019-02-06T15:15:42.999Z,32.85
2019-02-06T15:18:38.753Z,39.92
2019-02-06T15:21:19.188Z,34.88
2019-02-06T15:23:59.477Z,36.77
2019-02-06T15:26:42.585Z,37.40
2019-02-06T15:29:19.953Z,37.23
2019-02-06T15:31:57.511Z,44.50
2019-02-06T15:34:41.090Z,46.02
2019-02-06T15:37:24.483Z,42.95
2019-02-06T15:40:27.686Z,37.40
2019-02-06T15:43:04.913Z,40.03
2019-02-06T15:45:45.357Z,41.00
2019-02-06T15:48:29.368Z,42.90
2019-02-06T15:51:17.186Z,39.03
2019-02-06T15:53:54.394Z,38.00
2019-02-06T15:56:44.549Z,36.73
2019-02-06T15:59:31.038Z,41.77
2019-02-06T16:02:17.272Z,44.13
2019-02-06T16:05:14.677Z,34.63
2019-02-06T16:08:04.623Z,42.53
2019-02-06T16:10:57.442Z,33.85
2019-02-06T16:13:50.022Z,40.48
2019-02-06T16:16:33.372Z,39.63
2019-02-06T16:19:28.856Z,41.98
2019-02-06T16:22:24.654Z,56.42
2019-02-06T16:25:02.292Z,52.78
2019-02-06T16:27:45.865Z,40.00
2019-02-06T16:30:51.917Z,43.92
2019-02-06T16:33:36.312Z,51.02
2019-02-06T16:36:13.541Z,51.83
2019-02-06T16:38:51.217Z,41.73
2019-02-06T16:41:32.527Z,47.20
2019-02-06T16:44:18.682Z,53.60
2019-02-06T16:47:00.511Z,39.08
2019-02-06T16:49:39.091Z,80.20
2019-02-06T16:52:38.875Z,42.85
2019-02-06T16:55:25.231Z,42.73
2019-02-06T16:58:08.812Z,42.08
2019-02-06T17:00:49.254Z,77.47
2019-02-06T17:03:25.045Z,110.17
2019-02-06T17:05:56.734Z,87.47
2019-02-06T17:08:32.618Z,70.28
2019-02-06T17:11:21.289Z,92.30
2019-02-06T17:14:02.191Z,51.92
2019-02-06T17:16:48.917Z,66.53
2019-02-06T17:19:29.195Z,49.10
2019-02-06T17:22:15.809Z,94.47
2019-02-06T17:25:09.523Z,81.80
2019-02-06T17:28:06.453Z,92.10
2019-02-06T17:30:56.262Z,104.30
2019-02-06T17:33:55.961Z,88.42
2019-02-06T17:36:33.659Z,86.08
2019-02-06T17:39:23.831Z,122.60
2019-02-06T17:42:15.080Z,124.35
2019-02-06T17:44:42.932Z,135.70
2019-02-06T17:47:27.645Z,183.40
2019-02-06T17:50:27.800Z,130.12
2019-02-06T17:53:02.273Z,121.87
2019-02-06T17:55:31.029Z,104.23
2019-02-06T17:58:01.007Z,132.72
2019-02-06T18:00:52.009Z,125.38
2019-02-06T18:03:20.654Z,127.92
2019-02-06T18:05:49.843Z,106.52
2019-02-06T18:08:19.999Z,157.93
2019-02-06T18:10:49.374Z,129.85
2019-02-06T18:13:20.522Z,140.43
2019-02-06T18:15:50.678Z,88.30
2019-02-06T18:18:20.510Z,110.90
2019-02-06T18:20:49.086Z,85.03
2019-02-06T18:23:17.692Z,60.90
2019-02-06T18:25:46.723Z,111.88
2019-02-06T18:28:15.541Z,90.60
2019-02-06T18:30:44.237Z,104.67
2019-02-06T18:33:18.764Z,139.35
2019-02-06T18:35:49.375Z,122.33
2019-02-06T18:38:18.180Z,100.47
2019-02-06T18:40:50.908Z,95.80
2019-02-06T18:43:21.474Z,105.83
2019-02-06T18:45:50.158Z,74.07
2019-02-06T18:48:21.163Z,89.72
2019-02-06T18:50:50.034Z,88.12
2019-02-06T19:03:00.902Z,105.32
2019-02-06T19:18:51.389Z,65.42
2019-02-06T19:21:23.123Z,54.20
2019-02-06T19:23:57.590Z,69.47
2019-02-06T19:32:31.277Z,78.87
2019-02-06T19:56:42.984Z,71.20
2019-02-06T19:59:11.729Z,72.22
2019-02-06T20:01:41.575Z,126.78
2019-02-06T20:04:12.944Z,78.17
2019-02-06T20:06:45.010Z,93.55
2019-02-06T20:12:07.735Z,119.28
2019-02-06T20:14:37.958Z,92.97
2019-02-06T20:17:06.818Z,75.75
2019-02-06T20:19:39.693Z,97.85
2019-02-06T20:22:08.551Z,92.50
2019-02-06T20:24:37.113Z,64.50
2019-02-06T20:27:08.388Z,115.70
2019-02-06T20:29:38.089Z,91.60
2019-02-06T20:32:07.218Z,65.70
2019-02-06T20:34:35.870Z,68.17
2019-02-06T20:37:06.186Z,50.83
2019-02-06T20:39:36.043Z,48.87
2019-02-06T20:42:04.919Z,52.40
2019-02-06T20:44:36.417Z,66.35
2019-02-06T20:47:06.377Z,43.80
2019-02-06T20:49:36.863Z,43.28
2019-02-06T20:52:05.557Z,41.80
2019-02-06T20:54:35.852Z,43.52
2019-02-06T20:57:12.066Z,39.63
2019-02-06T20:59:34.898Z,46.65
2019-02-06T21:02:03.600Z,41.88
2019-02-06T21:04:34.205Z,52.70
2019-02-06T21:07:02.910Z,42.53
2019-02-06T21:09:34.351Z,50.25
2019-02-06T21:12:07.975Z,57.80
2019-02-06T21:14:39.367Z,44.48
2019-02-06T21:17:09.095Z,32.75
2019-02-06T21:19:37.875Z,39.88
2019-02-06T21:22:07.068Z,38.85
2019-02-06T21:24:35.899Z,44.75
2019-02-06T21:27:04.658Z,46.77
2019-02-06T21:29:35.276Z,36.15
2019-02-06T21:32:05.968Z,34.05
2019-02-06T21:34:34.711Z,46.60
2019-02-06T21:37:08.206Z,28.25
2019-02-06T21:39:39.374Z,31.48
2019-02-06T21:42:09.368Z,30.23
2019-02-06T21:44:38.368Z,42.73
2019-02-06T21:47:07.494Z,32.17
2019-02-06T21:49:37.821Z,27.95
2019-02-06T21:52:06.597Z,28.83
2019-02-06T21:54:35.970Z,25.70
2019-02-06T21:57:06.567Z,33.25
